Time,TemperatureF,DewpointF,PressureIn,WindDirection,WindDirectionDegrees,WindSpeedMPH,WindSpeedGustMPH,Humidity,HourlyPrecipIn,Conditions,Clouds,dailyrainin,SolarRadiationWatts/m^2,SoftwareType,DateUTC
2013-04-12 00:01:00,71.1,68.9,29.83,SSE,161,0.0,4.0,93,0.00,,,0.00,0.0,meteohub,2013-04-12 04:01:00,
2013-04-12 00:02:00,71.1,68.9,29.83,SSE,161,0.0,4.0,93,0.00,,,0.00,0.0,meteohub,2013-04-12 04:02:00,
2013-04-12 00:07:00,71.1,68.9,29.84,South,190,2.0,4.0,93,0.00,,,0.00,0.0,meteohub,2013-04-12 04:07:00,
2013-04-12 00:12:00,71.1,68.9,29.84,SSE,154,0.0,5.0,93,0.00,,,0.00,0.0,meteohub,2013-04-12 04:12:00,
2013-04-12 00:13:00,71.1,68.9,29.83,SSE,161,0.0,5.0,93,0.00,,,0.00,0.0,meteohub,2013-04-12 04:13:00,
2013-04-12 00:20:00,71.1,68.9,29.84,SW,234,0.0,5.0,93,0.00,,,0.00,0.0,meteohub,2013-04-12 04:20:00,
2013-04-12 00:26:00,71.2,69.1,29.83,SSE,165,0.0,5.0,93,0.00,,,0.00,0.0,meteohub,2013-04-12 04:26:00,
2013-04-12 00:32:00,71.2,69.1,29.84,ESE,117,0.0,4.0,93,0.00,,,0.00,0.0,meteohub,2013-04-12 04:32:00,
2013-04-12 00:37:00,71.2,69.1,29.84,South,183,1.0,4.0,93,0.00,,,0.00,0.0,meteohub,2013-04-12 04:37:00,
2013-04-12 00:42:00,71.2,69.1,29.85,WNW,288,0.0,3.0,93,0.00,,,0.00,0.0,meteohub,2013-04-12 04:42:00,
2013-04-12 00:47:00,71.2,69.1,29.85,NE,54,0.0,3.0,93,0.00,,,0.00,0.0,meteohub,2013-04-12 04:47:00,
2013-04-12 00:52:00,71.2,69.4,29.85,South,169,0.0,4.0,94,0.00,,,0.00,0.0,meteohub,2013-04-12 04:52:00,
2013-04-12 00:57:00,71.2,69.1,29.85,South,169,0.0,4.0,93,0.00,,,0.00,0.0,meteohub,2013-04-12 04:57:00,
2013-04-12 01:02:00,71.4,69.3,29.85,South,169,0.0,4.0,93,0.00,,,0.00,0.0,meteohub,2013-04-12 05:02:00,
2013-04-12 01:07:00,71.2,69.1,29.85,South,172,0.0,4.0,93,0.00,,,0.00,0.0,meteohub,2013-04-12 05:07:00,
2013-04-12 01:12:00,71.2,69.1,29.85,South,172,0.0,2.0,93,0.00,,,0.00,0.0,meteohub,2013-04-12 05:12:00,
2013-04-12 01:19:00,71.2,69.4,29.85,WSW,241,0.0,3.0,94,0.00,,,0.00,0.0,meteohub,2013-04-12 05:19:00,
2013-04-12 01:27:00,71.2,69.4,29.85,WSW,237,1.0,3.0,94,0.00,,,0.00,0.0,meteohub,2013-04-12 05:27:00,
2013-04-12 01:32:00,71.4,69.6,29.85,WSW,245,0.0,3.0,94,0.00,,,0.00,0.0,meteohub,2013-04-12 05:32:00,
2013-04-12 01:37:00,71.4,69.6,29.85,WSW,242,0.0,4.0,94,0.00,,,0.00,0.0,meteohub,2013-04-12 05:37:00,
2013-04-12 01:42:00,71.4,69.6,29.85,SSE,160,0.0,4.0,94,0.00,,,0.00,0.0,meteohub,2013-04-12 05:42:00,
2013-04-12 01:47:00,71.4,69.6,29.85,SSE,160,0.0,4.0,94,0.00,,,0.00,0.0,meteohub,2013-04-12 05:47:00,
2013-04-12 01:52:00,71.4,69.6,29.84,SSE,161,0.0,2.0,94,0.00,,,0.00,0.0,meteohub,2013-04-12 05:52:00,
2013-04-12 01:57:00,71.4,69.6,29.84,SSE,160,0.0,2.0,94,0.00,,,0.00,0.0,meteohub,2013-04-12 05:57:00,
2013-04-12 02:02:00,71.4,69.6,29.84,SSE,150,0.0,2.0,94,0.00,,,0.00,0.0,meteohub,2013-04-12 06:02:00,
2013-04-12 02:10:00,71.4,69.6,29.85,SW,232,0.0,2.0,94,0.00,,,0.00,0.0,meteohub,2013-04-12 06:10:00,
2013-04-12 02:17:00,71.4,69.6,29.85,SW,233,0.0,4.0,94,0.00,,,0.00,0.0,meteohub,2013-04-12 06:17:00,
2013-04-12 02:22:00,71.4,69.6,29.85,SW,222,0.0,4.0,94,0.00,,,0.00,0.0,meteohub,2013-04-12 06:22:00,
2013-04-12 02:27:00,71.6,69.8,29.84,SW,218,0.0,4.0,94,0.00,,,0.00,0.0,meteohub,2013-04-12 06:27:00,
2013-04-12 02:32:00,71.4,69.6,29.84,SW,219,0.0,3.0,94,0.00,,,0.00,0.0,meteohub,2013-04-12 06:32:00,
2013-04-12 02:38:00,71.4,69.6,29.84,West,263,0.0,3.0,94,0.00,,,0.00,0.0,meteohub,2013-04-12 06:38:00,
2013-04-12 02:44:00,71.4,69.6,29.84,West,263,0.0,3.0,94,0.00,,,0.00,0.0,meteohub,2013-04-12 06:44:00,
2013-04-12 02:50:00,71.4,69.6,29.83,South,182,0.0,3.0,94,0.00,,,0.00,0.0,meteohub,2013-04-12 06:50:00,
2013-04-12 02:57:00,71.4,69.6,29.83,South,174,0.0,4.0,94,0.00,,,0.00,0.0,meteohub,2013-04-12 06:57:00,
2013-04-12 03:02:00,71.4,69.6,29.81,SSE,153,0.0,4.0,94,0.00,,,0.00,0.0,meteohub,2013-04-12 07:02:00,
2013-04-12 03:07:00,71.4,69.6,29.80,SSE,153,0.0,4.0,94,0.00,,,0.00,0.0,meteohub,2013-04-12 07:07:00,
2013-04-12 03:12:00,71.4,69.6,29.79,SSE,148,1.0,1.0,94,0.00,,,0.00,0.0,meteohub,2013-04-12 07:12:00,
2013-04-12 03:17:00,71.4,69.6,29.79,SE,132,0.0,4.0,94,0.00,,,0.00,0.0,meteohub,2013-04-12 07:17:00,
2013-04-12 03:25:00,71.2,69.4,29.78,SE,134,2.0,4.0,94,0.00,,,0.00,0.0,meteohub,2013-04-12 07:25:00,
2013-04-12 03:31:00,71.2,69.4,29.78,SSW,211,0.0,4.0,94,0.00,,,0.00,0.0,meteohub,2013-04-12 07:31:00,
2013-04-12 03:37:00,71.2,69.4,29.76,SSE,168,1.0,4.0,94,0.00,,,0.00,0.0,meteohub,2013-04-12 07:37:00,
2013-04-12 03:42:00,71.2,69.4,29.76,SSE,167,0.0,7.0,94,0.00,,,0.00,0.0,meteohub,2013-04-12 07:42:00,
2013-04-12 03:47:00,71.2,69.8,29.75,SE,144,1.0,7.0,95,0.00,,,0.00,0.0,meteohub,2013-04-12 07:47:00,
2013-04-12 03:52:00,71.2,69.8,29.75,SE,146,0.0,5.0,95,0.00,,,0.00,0.0,meteohub,2013-04-12 07:52:00,
2013-04-12 03:57:00,71.2,69.8,29.76,SSE,148,1.0,8.0,95,0.00,,,0.00,0.0,meteohub,2013-04-12 07:57:00,
2013-04-12 04:02:00,71.2,69.8,29.75,SSW,213,0.0,8.0,95,0.00,,,0.00,0.0,meteohub,2013-04-12 08:02:00,
2013-04-12 04:08:00,71.2,69.8,29.75,South,182,0.0,8.0,95,0.00,,,0.00,0.0,meteohub,2013-04-12 08:08:00,
2013-04-12 04:15:00,71.2,69.8,29.75,ESE,120,1.0,7.0,95,0.00,,,0.00,0.0,meteohub,2013-04-12 08:15:00,
2013-04-12 04:21:00,71.2,69.8,29.75,South,173,0.0,7.0,95,0.00,,,0.00,0.0,meteohub,2013-04-12 08:21:00,
2013-04-12 04:27:00,71.2,69.8,29.75,SSE,168,1.0,7.0,95,0.00,,,0.00,0.0,meteohub,2013-04-12 08:27:00,
2013-04-12 04:32:00,71.2,69.8,29.75,SSE,167,0.0,9.0,95,0.00,,,0.00,0.0,meteohub,2013-04-12 08:32:00,
2013-04-12 04:37:00,71.2,69.8,29.75,South,188,0.0,9.0,95,0.00,,,0.00,0.0,meteohub,2013-04-12 08:37:00,
2013-04-12 04:42:00,71.2,69.8,29.75,SE,134,0.0,15.0,95,0.00,,,0.00,0.0,meteohub,2013-04-12 08:42:00,
2013-04-12 04:47:00,71.2,69.8,29.75,WSW,242,0.0,15.0,95,0.00,,,0.00,0.0,meteohub,2013-04-12 08:47:00,
2013-04-12 04:52:00,71.2,69.8,29.75,SSW,204,0.0,15.0,95,0.00,,,0.00,0.0,meteohub,2013-04-12 08:52:00,
2013-04-12 04:58:00,71.2,69.8,29.75,SE,145,0.0,15.0,95,0.00,,,0.00,0.0,meteohub,2013-04-12 08:58:00,
2013-04-12 05:04:00,71.2,69.8,29.75,SW,229,2.0,11.0,95,0.00,,,0.00,0.0,meteohub,2013-04-12 09:04:00,
2013-04-12 05:11:00,71.2,69.8,29.75,NNW,327,0.0,11.0,95,0.00,,,0.00,0.0,meteohub,2013-04-12 09:11:00,
2013-04-12 05:17:00,71.2,69.8,29.75,SE,131,0.0,11.0,95,0.00,,,0.00,0.0,meteohub,2013-04-12 09:17:00,
2013-04-12 05:23:00,71.2,69.8,29.74,SW,235,0.0,11.0,95,0.00,,,0.00,0.0,meteohub,2013-04-12 09:23:00,
2013-04-12 05:29:00,71.2,69.8,29.74,WSW,258,0.0,11.0,95,0.00,,,0.00,0.0,meteohub,2013-04-12 09:29:00,
2013-04-12 05:35:00,71.2,69.8,29.75,West,278,1.0,6.0,95,0.00,,,0.00,0.0,meteohub,2013-04-12 09:35:00,
2013-04-12 05:41:00,71.4,70.0,29.74,SSW,209,2.0,6.0,95,0.00,,,0.00,0.0,meteohub,2013-04-12 09:41:00,
2013-04-12 05:47:00,71.4,70.0,29.75,SW,228,0.0,6.0,95,0.00,,,0.00,0.0,meteohub,2013-04-12 09:47:00,
2013-04-12 05:54:00,71.6,70.2,29.74,South,186,0.0,6.0,95,0.00,,,0.00,0.0,meteohub,2013-04-12 09:54:00,
2013-04-12 06:00:00,71.8,70.3,29.74,SE,130,0.0,7.0,95,0.00,,,0.00,0.0,meteohub,2013-04-12 10:00:00,
2013-04-12 06:07:00,71.8,70.3,29.74,SE,126,0.0,7.0,95,0.00,,,0.00,0.0,meteohub,2013-04-12 10:07:00,
2013-04-12 06:13:00,71.8,70.3,29.74,SSE,165,0.0,7.0,95,0.00,,,0.00,0.0,meteohub,2013-04-12 10:13:00,
2013-04-12 06:19:00,71.8,70.3,29.74,NE,54,0.0,7.0,95,0.00,,,0.00,0.0,meteohub,2013-04-12 10:19:00,
2013-04-12 06:25:00,72.0,70.5,29.73,South,185,0.0,5.0,95,0.00,,,0.00,0.0,meteohub,2013-04-12 10:25:00,
2013-04-12 06:32:00,72.0,70.5,29.74,SSW,212,0.0,5.0,95,0.00,,,0.00,0.0,meteohub,2013-04-12 10:32:00,
2013-04-12 06:37:00,72.0,70.2,29.74,SSE,163,0.0,5.0,94,0.00,,,0.00,0.0,meteohub,2013-04-12 10:37:00,
2013-04-12 06:42:00,72.0,70.2,29.74,SE,132,0.0,5.0,94,0.00,,,0.00,0.0,meteohub,2013-04-12 10:42:00,
2013-04-12 06:47:00,71.8,70.0,29.75,SE,133,0.0,5.0,94,0.00,,,0.00,0.0,meteohub,2013-04-12 10:47:00,
2013-04-12 06:52:00,71.8,70.0,29.75,SE,134,0.0,5.0,94,0.00,,,0.00,0.0,meteohub,2013-04-12 10:52:00,
2013-04-12 06:57:00,71.8,70.0,29.75,SE,138,0.0,5.0,94,0.00,,,0.00,0.0,meteohub,2013-04-12 10:57:00,
2013-04-12 07:03:00,72.0,70.2,29.75,SE,138,0.0,3.0,94,0.00,,,0.00,0.0,meteohub,2013-04-12 11:03:00,
2013-04-12 07:09:00,72.0,70.2,29.75,SSE,164,1.0,3.0,94,0.00,,,0.00,0.0,meteohub,2013-04-12 11:09:00,
2013-04-12 07:16:00,72.0,70.2,29.76,SSE,166,0.0,3.0,94,0.00,,,0.00,5.0,meteohub,2013-04-12 11:16:00,
2013-04-12 07:22:00,72.0,70.2,29.76,WSW,242,1.0,4.0,94,0.00,,,0.00,7.0,meteohub,2013-04-12 11:22:00,
2013-04-12 07:27:00,72.0,70.2,29.77,South,181,2.0,4.0,94,0.00,,,0.00,9.0,meteohub,2013-04-12 11:27:00,
2013-04-12 07:34:00,72.0,70.2,29.77,SSE,158,0.0,2.0,94,0.00,,,0.00,18.0,meteohub,2013-04-12 11:34:00,
2013-04-12 07:41:00,72.0,70.2,29.77,SSE,168,0.0,5.0,94,0.00,,,0.00,37.0,meteohub,2013-04-12 11:41:00,
2013-04-12 07:47:00,72.1,70.3,29.77,SSE,168,0.0,5.0,94,0.00,,,0.00,21.0,meteohub,2013-04-12 11:47:00,
2013-04-12 07:52:00,72.1,70.3,29.77,SSE,165,0.0,4.0,94,0.00,,,0.00,21.0,meteohub,2013-04-12 11:52:00,
2013-04-12 07:59:00,72.1,70.3,29.77,SSE,161,0.0,4.0,94,0.00,,,0.00,28.0,meteohub,2013-04-12 11:59:00,
2013-04-12 08:05:00,72.1,70.3,29.78,WSW,252,0.0,4.0,94,0.00,,,0.00,33.0,meteohub,2013-04-12 12:05:00,
2013-04-12 08:12:00,72.3,70.5,29.77,WSW,252,0.0,7.0,94,0.00,,,0.00,60.0,meteohub,2013-04-12 12:12:00,
2013-04-12 08:17:00,72.3,70.5,29.78,WSW,252,0.0,7.0,94,0.00,,,0.00,54.0,meteohub,2013-04-12 12:17:00,
2013-04-12 08:22:00,72.3,70.5,29.78,WSW,240,0.0,2.0,94,0.00,,,0.00,70.0,meteohub,2013-04-12 12:22:00,
2013-04-12 08:27:00,72.5,70.7,29.78,South,182,0.0,2.0,94,0.00,,,0.00,74.0,meteohub,2013-04-12 12:27:00,
2013-04-12 08:34:00,72.7,70.9,29.79,South,182,0.0,4.0,94,0.00,,,0.00,33.0,meteohub,2013-04-12 12:34:00,
2013-04-12 08:40:00,72.7,70.9,29.79,South,182,0.0,2.0,94,0.00,,,0.00,53.0,meteohub,2013-04-12 12:40:00,
2013-04-12 08:46:00,72.9,71.1,29.79,South,182,0.0,2.0,94,0.00,,,0.00,74.0,meteohub,2013-04-12 12:46:00,
2013-04-12 08:52:00,72.9,71.1,29.79,South,184,0.0,2.0,94,0.00,,,0.00,123.0,meteohub,2013-04-12 12:52:00,
2013-04-12 08:57:00,73.4,71.6,29.79,South,184,0.0,2.0,94,0.00,,,0.00,116.0,meteohub,2013-04-12 12:57:00,
2013-04-12 09:02:00,73.6,71.4,29.79,South,184,0.0,2.0,93,0.00,,,0.00,151.0,meteohub,2013-04-12 13:02:00,
2013-04-12 09:08:00,74.3,72.1,29.79,SSW,198,0.0,2.0,93,0.00,,,0.00,176.0,meteohub,2013-04-12 13:08:00,
2013-04-12 09:14:00,74.7,71.8,29.79,South,182,0.0,4.0,91,0.00,,,0.00,158.0,meteohub,2013-04-12 13:14:00,
2013-04-12 09:21:00,74.8,71.8,29.79,South,182,0.0,4.0,90,0.00,,,0.00,134.0,meteohub,2013-04-12 13:21:00,
2013-04-12 09:27:00,75.0,72.1,29.79,East,91,0.0,4.0,91,0.00,,,0.00,169.0,meteohub,2013-04-12 13:27:00,
2013-04-12 09:32:00,75.4,72.3,29.79,South,186,0.0,6.0,90,0.00,,,0.00,186.0,meteohub,2013-04-12 13:32:00,
2013-04-12 09:37:00,75.7,72.3,29.79,SSW,198,0.0,6.0,89,0.00,,,0.00,232.0,meteohub,2013-04-12 13:37:00,
2013-04-12 09:42:00,75.9,72.1,29.79,SSE,164,4.0,6.0,88,0.00,,,0.00,174.0,meteohub,2013-04-12 13:42:00,
2013-04-12 09:47:00,75.9,72.1,29.79,SE,126,0.0,6.0,88,0.00,,,0.00,199.0,meteohub,2013-04-12 13:47:00,
2013-04-12 09:52:00,76.6,73.2,29.79,WNW,290,0.0,6.0,89,0.00,,,0.00,262.0,meteohub,2013-04-12 13:52:00,
2013-04-12 09:57:00,77.5,73.8,29.79,SSW,196,0.0,6.0,88,0.00,,,0.00,403.0,meteohub,2013-04-12 13:57:00,
2013-04-12 10:02:00,78.4,73.6,29.79,West,259,4.0,5.0,85,0.00,,,0.00,355.0,meteohub,2013-04-12 14:02:00,
2013-04-12 10:07:00,78.1,73.2,29.79,SW,219,1.0,5.0,85,0.00,,,0.00,214.0,meteohub,2013-04-12 14:07:00,
2013-04-12 10:14:00,78.3,73.4,29.79,NW,308,0.0,9.0,85,0.00,,,0.00,230.0,meteohub,2013-04-12 14:14:00,
2013-04-12 10:20:00,79.5,73.9,29.79,SSE,162,0.0,9.0,83,0.00,,,0.00,329.0,meteohub,2013-04-12 14:20:00,
2013-04-12 10:26:00,79.9,74.3,29.79,West,277,0.0,7.0,83,0.00,,,0.00,408.0,meteohub,2013-04-12 14:26:00,
2013-04-12 10:32:00,80.1,73.8,29.79,East,83,1.0,10.0,81,0.00,,,0.00,325.0,meteohub,2013-04-12 14:32:00,
2013-04-12 10:37:00,80.1,74.1,29.79,WSW,238,0.0,10.0,82,0.00,,,0.00,330.0,meteohub,2013-04-12 14:37:00,
2013-04-12 10:42:00,81.0,74.7,29.79,SW,231,3.0,10.0,81,0.00,,,0.00,230.0,meteohub,2013-04-12 14:42:00,
2013-04-12 10:47:00,81.1,73.9,29.79,West,259,0.0,10.0,79,0.00,,,0.00,162.0,meteohub,2013-04-12 14:47:00,
2013-04-12 10:52:00,81.1,73.9,29.79,West,271,0.0,6.0,79,0.00,,,0.00,185.0,meteohub,2013-04-12 14:52:00,
2013-04-12 10:57:00,81.0,73.4,29.79,West,279,2.0,6.0,78,0.00,,,0.00,197.0,meteohub,2013-04-12 14:57:00,
2013-04-12 11:04:00,81.5,73.6,29.78,WSW,257,0.0,6.0,77,0.00,,,0.00,810.0,meteohub,2013-04-12 15:04:00,
2013-04-12 11:10:00,82.2,73.6,29.78,West,281,1.0,6.0,75,0.00,,,0.00,744.0,meteohub,2013-04-12 15:10:00,
2013-04-12 11:16:00,83.5,74.3,29.78,SW,229,3.0,11.0,74,0.00,,,0.00,809.0,meteohub,2013-04-12 15:16:00,
2013-04-12 11:22:00,83.1,72.7,29.79,West,261,2.0,12.0,71,0.00,,,0.00,838.0,meteohub,2013-04-12 15:22:00,
2013-04-12 11:27:00,83.8,72.5,29.79,SW,232,2.0,12.0,69,0.00,,,0.00,914.0,meteohub,2013-04-12 15:27:00,
2013-04-12 11:32:00,84.4,72.7,29.79,West,265,13.0,15.0,68,0.00,,,0.00,960.0,meteohub,2013-04-12 15:32:00,
2013-04-12 11:38:00,84.7,72.1,29.79,West,279,7.0,15.0,66,0.00,,,0.00,178.0,meteohub,2013-04-12 15:38:00,
2013-04-12 11:44:00,83.3,72.1,29.79,West,274,9.0,13.0,69,0.00,,,0.00,251.0,meteohub,2013-04-12 15:44:00,
2013-04-12 11:50:00,82.2,70.5,29.79,WSW,247,1.0,12.0,68,0.00,,,0.00,318.0,meteohub,2013-04-12 15:50:00,
2013-04-12 11:56:00,83.7,71.1,29.80,WNW,287,3.0,11.0,66,0.00,,,0.00,345.0,meteohub,2013-04-12 15:56:00,
2013-04-12 12:02:00,84.9,70.5,29.79,NW,310,9.0,13.0,62,0.00,,,0.00,865.0,meteohub,2013-04-12 16:02:00,
2013-04-12 12:07:00,85.3,70.7,29.79,WNW,291,2.0,13.0,62,0.00,,,0.00,874.0,meteohub,2013-04-12 16:07:00,
2013-04-12 12:14:00,86.5,70.5,29.79,West,270,6.0,14.0,59,0.00,,,0.00,895.0,meteohub,2013-04-12 16:14:00,
2013-04-12 12:21:00,86.7,69.1,29.79,SW,225,12.0,12.0,56,0.00,,,0.00,868.0,meteohub,2013-04-12 16:21:00,
2013-04-12 12:27:00,86.4,68.7,29.79,West,271,5.0,12.0,56,0.00,,,0.00,877.0,meteohub,2013-04-12 16:27:00,
2013-04-12 12:32:00,86.5,68.9,29.78,NW,319,8.0,14.0,56,0.00,,,0.00,877.0,meteohub,2013-04-12 16:32:00,
2013-04-12 12:40:00,86.4,69.3,29.79,WNW,292,9.0,18.0,57,0.00,,,0.00,888.0,meteohub,2013-04-12 16:40:00,
2013-04-12 12:46:00,86.5,69.4,29.78,West,276,6.0,18.0,57,0.00,,,0.00,199.0,meteohub,2013-04-12 16:46:00,
2013-04-12 12:52:00,86.5,70.5,29.78,WSW,251,2.0,18.0,59,0.00,,,0.00,928.0,meteohub,2013-04-12 16:52:00,
2013-04-12 12:57:00,87.3,70.2,29.78,WSW,256,4.0,12.0,57,0.00,,,0.00,930.0,meteohub,2013-04-12 16:57:00,
2013-04-12 13:02:00,87.4,69.3,29.78,West,265,9.0,12.0,55,0.00,,,0.00,905.0,meteohub,2013-04-12 17:02:00,
2013-04-12 13:07:00,87.4,69.8,29.78,WNW,288,13.0,13.0,56,0.00,,,0.00,963.0,meteohub,2013-04-12 17:07:00,
2013-04-12 13:12:00,87.4,71.4,29.78,SW,230,11.0,12.0,59,0.00,,,0.00,935.0,meteohub,2013-04-12 17:12:00,
2013-04-12 13:17:00,88.0,70.9,29.77,West,270,4.0,14.0,57,0.00,,,0.00,1011.0,meteohub,2013-04-12 17:17:00,
2013-04-12 13:22:00,88.5,70.9,29.77,NW,312,2.0,14.0,56,0.00,,,0.00,981.0,meteohub,2013-04-12 17:22:00,
2013-04-12 13:29:00,88.5,69.3,29.77,West,276,3.0,15.0,53,0.00,,,0.00,979.0,meteohub,2013-04-12 17:29:00,
2013-04-12 13:35:00,88.9,68.9,29.77,WNW,284,5.0,11.0,52,0.00,,,0.00,1018.0,meteohub,2013-04-12 17:35:00,
2013-04-12 13:42:00,88.9,69.6,29.76,WNW,294,1.0,17.0,53,0.00,,,0.00,826.0,meteohub,2013-04-12 17:42:00,
2013-04-12 13:47:00,88.3,68.5,29.77,West,277,5.0,17.0,52,0.00,,,0.00,752.0,meteohub,2013-04-12 17:47:00,
2013-04-12 13:52:00,88.2,68.9,29.77,WNW,288,1.0,17.0,53,0.00,,,0.00,849.0,meteohub,2013-04-12 17:52:00,
2013-04-12 13:57:00,88.3,69.6,29.77,WNW,286,6.0,13.0,54,0.00,,,0.00,323.0,meteohub,2013-04-12 17:57:00,
2013-04-12 14:02:00,87.6,68.9,29.76,West,281,2.0,13.0,54,0.00,,,0.00,868.0,meteohub,2013-04-12 18:02:00,
2013-04-12 14:07:00,88.0,69.8,29.76,WNW,290,3.0,12.0,55,0.00,,,0.00,543.0,meteohub,2013-04-12 18:07:00,
2013-04-12 14:14:00,87.6,68.9,29.76,West,260,13.0,13.0,54,0.00,,,0.00,759.0,meteohub,2013-04-12 18:14:00,
2013-04-12 14:21:00,87.1,69.4,29.77,West,279,10.0,21.0,56,0.00,,,0.00,468.0,meteohub,2013-04-12 18:21:00,
2013-04-12 14:26:00,87.8,69.6,29.77,WNW,297,0.0,21.0,55,0.00,,,0.00,322.0,meteohub,2013-04-12 18:26:00,
2013-04-12 15:26:00,84.7,67.3,29.75,West,264,1.0,15.0,56,0.00,,,0.00,255.0,meteohub,2013-04-12 19:26:00,
2013-04-12 15:27:00,84.6,68.2,29.75,SW,233,0.0,11.0,58,0.00,,,0.00,158.0,meteohub,2013-04-12 19:27:00,
2013-04-12 15:30:00,84.4,68.0,29.75,SW,234,4.0,11.0,58,0.00,,,0.00,141.0,meteohub,2013-04-12 19:30:00,
2013-04-12 15:36:00,84.0,68.2,29.75,WNW,283,1.0,10.0,59,0.00,,,0.00,104.0,meteohub,2013-04-12 19:36:00,
2013-04-12 15:39:00,83.8,68.5,29.75,West,276,0.0,6.0,60,0.00,,,0.00,121.0,meteohub,2013-04-12 19:39:00,
2013-04-12 15:45:00,83.8,68.9,29.75,West,261,3.0,6.0,61,0.00,,,0.00,67.0,meteohub,2013-04-12 19:45:00,
2013-04-12 15:52:00,83.7,69.3,29.75,West,260,1.0,6.0,62,0.00,,,0.00,74.0,meteohub,2013-04-12 19:52:00,
2013-04-12 15:57:00,83.5,69.6,29.75,West,275,4.0,7.0,63,0.00,,,0.00,127.0,meteohub,2013-04-12 19:57:00,
2013-04-12 16:02:00,83.3,69.8,29.75,West,273,5.0,7.0,64,0.00,,,0.00,149.0,meteohub,2013-04-12 20:02:00,
2013-04-12 16:07:00,82.9,70.0,29.75,West,269,3.0,9.0,65,0.00,,,0.00,200.0,meteohub,2013-04-12 20:07:00,
2013-04-12 16:12:00,82.9,70.3,29.75,WNW,282,4.0,9.0,66,0.00,,,0.00,125.0,meteohub,2013-04-12 20:12:00,
2013-04-12 16:20:00,82.8,70.7,29.75,WSW,254,3.0,14.0,67,0.00,,,0.00,149.0,meteohub,2013-04-12 20:20:00,
2013-04-12 16:26:00,81.7,71.8,29.75,SW,232,2.0,16.0,72,0.00,,,0.00,120.0,meteohub,2013-04-12 20:26:00,
2013-04-12 16:32:00,80.1,71.8,29.75,WNW,284,2.0,16.0,76,0.01,,,0.01,272.0,meteohub,2013-04-12 20:32:00,
2013-04-12 16:37:00,80.2,72.0,29.75,West,271,2.0,10.0,76,0.01,,,0.01,404.0,meteohub,2013-04-12 20:37:00,
2013-04-12 16:44:00,81.9,72.3,29.75,West,281,4.0,8.0,73,0.01,,,0.01,243.0,meteohub,2013-04-12 20:44:00,
2013-04-12 16:50:00,81.7,71.8,29.76,WNW,284,4.0,8.0,72,0.01,,,0.01,299.0,meteohub,2013-04-12 20:50:00,
2013-04-12 16:57:00,81.5,71.6,29.76,WNW,288,3.0,12.0,72,0.01,,,0.01,258.0,meteohub,2013-04-12 20:57:00,
2013-04-12 17:03:00,81.3,71.8,29.76,West,277,5.0,12.0,73,0.01,,,0.01,290.0,meteohub,2013-04-12 21:03:00,
2013-04-12 17:09:00,81.1,71.6,29.76,WNW,288,3.0,12.0,73,0.01,,,0.01,357.0,meteohub,2013-04-12 21:09:00,
2013-04-12 17:15:00,81.3,71.8,29.76,West,260,7.0,15.0,73,0.01,,,0.01,283.0,meteohub,2013-04-12 21:15:00,
2013-04-12 17:21:00,80.8,71.8,29.76,WNW,284,3.0,15.0,74,0.01,,,0.01,287.0,meteohub,2013-04-12 21:21:00,
2013-04-12 17:27:00,80.6,71.6,29.76,West,279,5.0,16.0,74,0.01,,,0.01,225.0,meteohub,2013-04-12 21:27:00,
2013-04-12 17:34:00,80.2,71.6,29.76,WNW,283,3.0,16.0,75,0.00,,,0.01,162.0,meteohub,2013-04-12 21:34:00,
2013-04-12 17:40:00,80.1,71.4,29.76,West,276,1.0,16.0,75,0.00,,,0.01,128.0,meteohub,2013-04-12 21:40:00,
2013-04-12 17:46:00,79.9,71.6,29.76,WSW,256,1.0,13.0,76,0.00,,,0.01,218.0,meteohub,2013-04-12 21:46:00,
2013-04-12 17:52:00,80.1,71.4,29.77,WSW,253,1.0,13.0,75,0.00,,,0.01,255.0,meteohub,2013-04-12 21:52:00,
2013-04-12 17:57:00,79.9,71.2,29.77,NNW,333,4.0,6.0,75,0.00,,,0.01,169.0,meteohub,2013-04-12 21:57:00,
2013-04-12 18:02:00,79.7,71.1,29.78,West,276,5.0,11.0,75,0.00,,,0.01,90.0,meteohub,2013-04-12 22:02:00,
2013-04-12 18:07:00,79.5,71.2,29.78,WSW,257,0.0,11.0,76,0.00,,,0.01,63.0,meteohub,2013-04-12 22:07:00,
2013-04-12 18:14:00,79.3,70.7,29.78,West,275,2.0,9.0,75,0.00,,,0.01,46.0,meteohub,2013-04-12 22:14:00,
2013-04-12 18:20:00,79.0,70.7,29.78,SSW,211,3.0,10.0,76,0.00,,,0.01,60.0,meteohub,2013-04-12 22:20:00,
2013-04-12 18:27:00,78.6,70.3,29.78,West,261,6.0,10.0,76,0.00,,,0.01,70.0,meteohub,2013-04-12 22:27:00,
2013-04-12 18:32:00,78.4,70.7,29.78,West,281,4.0,10.0,77,0.00,,,0.01,56.0,meteohub,2013-04-12 22:32:00,
2013-04-12 18:37:00,78.3,70.5,29.79,SW,234,4.0,10.0,77,0.00,,,0.01,62.0,meteohub,2013-04-12 22:37:00,
2013-04-12 18:42:00,78.1,70.7,29.79,West,259,3.0,9.0,78,0.00,,,0.01,33.0,meteohub,2013-04-12 22:42:00,
2013-04-12 18:48:00,77.7,70.3,29.79,West,268,0.0,8.0,78,0.00,,,0.01,25.0,meteohub,2013-04-12 22:48:00,
2013-04-12 18:55:00,77.5,70.5,29.79,West,271,2.0,7.0,79,0.00,,,0.01,42.0,meteohub,2013-04-12 22:55:00,
2013-04-12 19:01:00,77.4,70.7,29.79,West,261,2.0,7.0,80,0.00,,,0.01,25.0,meteohub,2013-04-12 23:01:00,
2013-04-12 19:07:00,77.2,70.5,29.79,West,277,0.0,6.0,80,0.00,,,0.01,7.0,meteohub,2013-04-12 23:07:00,
2013-04-12 19:12:00,77.0,70.7,29.79,West,281,0.0,6.0,81,0.00,,,0.01,16.0,meteohub,2013-04-12 23:12:00,
2013-04-12 19:17:00,76.8,70.9,29.80,West,281,0.0,5.0,82,0.00,,,0.01,0.0,meteohub,2013-04-12 23:17:00,
2013-04-12 19:22:00,76.6,70.7,29.79,SW,215,3.0,5.0,82,0.01,,,0.01,21.0,meteohub,2013-04-12 23:22:00,
2013-04-12 19:27:00,76.3,70.7,29.80,West,277,0.0,6.0,83,0.01,,,0.01,23.0,meteohub,2013-04-12 23:27:00,
2013-04-12 19:32:00,75.9,70.3,29.79,West,277,0.0,6.0,83,0.01,,,0.02,16.0,meteohub,2013-04-12 23:32:00,
2013-04-12 19:38:00,75.6,70.3,29.80,West,277,0.0,6.0,84,0.01,,,0.02,11.0,meteohub,2013-04-12 23:38:00,
2013-04-12 19:45:00,75.4,70.2,29.79,West,277,0.0,2.0,84,0.01,,,0.02,7.0,meteohub,2013-04-12 23:45:00,
2013-04-12 19:51:00,75.0,69.8,29.80,West,277,1.0,2.0,84,0.01,,,0.02,5.0,meteohub,2013-04-12 23:51:00,
2013-04-12 19:57:00,74.7,69.4,29.80,West,277,0.0,1.0,84,0.01,,,0.02,7.0,meteohub,2013-04-12 23:57:00,
2013-04-12 20:03:00,74.3,69.1,29.80,West,277,0.0,1.0,84,0.01,,,0.02,0.0,meteohub,2013-04-13 00:03:00,
2013-04-12 20:09:00,73.9,68.7,29.80,West,277,0.0,1.0,84,0.01,,,0.02,0.0,meteohub,2013-04-13 00:09:00,
2013-04-12 20:15:00,73.8,68.5,29.80,West,277,0.0,1.0,84,0.01,,,0.00,0.0,meteohub,2013-04-13 00:15:00,
2013-04-12 20:22:00,73.6,68.4,29.80,West,277,0.0,1.0,84,0.00,,,0.00,0.0,meteohub,2013-04-13 00:22:00,
2013-04-12 20:27:00,73.2,68.4,29.80,West,277,0.0,1.0,85,0.00,,,0.00,0.0,meteohub,2013-04-13 00:27:00,
2013-04-12 20:32:00,73.0,68.2,29.80,West,277,0.0,1.0,85,0.00,,,0.00,0.0,meteohub,2013-04-13 00:32:00,
2013-04-12 20:37:00,73.0,68.2,29.81,West,277,0.0,0.0,85,0.00,,,0.00,0.0,meteohub,2013-04-13 00:37:00,
2013-04-12 20:42:00,72.7,67.8,29.81,West,277,0.0,0.0,85,0.00,,,0.00,0.0,meteohub,2013-04-13 00:42:00,
2013-04-12 20:50:00,72.3,67.6,29.81,West,277,0.0,0.0,85,0.00,,,0.00,0.0,meteohub,2013-04-13 00:50:00,
2013-04-12 20:56:00,72.1,67.5,29.81,West,277,0.0,0.0,85,0.00,,,0.00,0.0,meteohub,2013-04-13 00:56:00,
2013-04-12 21:02:00,72.0,67.5,29.82,West,277,0.0,0.0,86,0.00,,,0.00,0.0,meteohub,2013-04-13 01:02:00,
2013-04-12 21:08:00,71.8,67.3,29.82,West,277,0.0,0.0,86,0.00,,,0.00,0.0,meteohub,2013-04-13 01:08:00,
2013-04-12 21:14:00,71.4,67.3,29.83,West,277,0.0,0.0,87,0.00,,,0.00,0.0,meteohub,2013-04-13 01:14:00,
2013-04-12 21:21:00,71.2,67.1,29.83,West,277,0.0,0.0,87,0.00,,,0.00,0.0,meteohub,2013-04-13 01:21:00,
2013-04-12 21:27:00,71.1,66.9,29.83,West,277,0.0,0.0,87,0.00,,,0.00,0.0,meteohub,2013-04-13 01:27:00,
2013-04-12 21:32:00,70.9,67.1,29.83,West,277,0.0,0.0,88,0.00,,,0.00,0.0,meteohub,2013-04-13 01:32:00,
2013-04-12 21:37:00,70.5,66.7,29.83,West,277,0.0,0.0,88,0.00,,,0.00,0.0,meteohub,2013-04-13 01:37:00,
2013-04-12 21:42:00,70.3,66.6,29.84,West,277,0.0,0.0,88,0.00,,,0.00,0.0,meteohub,2013-04-13 01:42:00,
2013-04-12 21:47:00,70.2,66.4,29.85,West,277,0.0,0.0,88,0.00,,,0.00,0.0,meteohub,2013-04-13 01:47:00,
2013-04-12 21:52:00,70.2,66.4,29.85,West,277,0.0,0.0,88,0.00,,,0.00,0.0,meteohub,2013-04-13 01:52:00,
2013-04-12 21:57:00,70.0,66.6,29.85,West,277,0.0,0.0,89,0.00,,,0.00,0.0,meteohub,2013-04-13 01:57:00,
2013-04-12 22:02:00,69.8,66.4,29.85,West,277,0.0,0.0,89,0.00,,,0.00,0.0,meteohub,2013-04-13 02:02:00,
2013-04-12 22:08:00,69.6,66.2,29.86,West,277,0.0,0.0,89,0.00,,,0.00,0.0,meteohub,2013-04-13 02:08:00,
2013-04-12 22:14:00,69.6,66.2,29.86,West,277,0.0,0.0,89,0.00,,,0.00,0.0,meteohub,2013-04-13 02:14:00,
2013-04-12 22:21:00,69.4,66.0,29.86,West,277,0.0,0.0,89,0.00,,,0.00,0.0,meteohub,2013-04-13 02:21:00,
2013-04-12 22:27:00,69.3,66.2,29.86,West,277,0.0,0.0,90,0.00,,,0.00,0.0,meteohub,2013-04-13 02:27:00,
2013-04-12 22:32:00,69.3,66.2,29.86,West,277,0.0,0.0,90,0.00,,,0.00,0.0,meteohub,2013-04-13 02:32:00,
2013-04-12 22:37:00,69.3,66.2,29.86,West,277,0.0,0.0,90,0.00,,,0.00,0.0,meteohub,2013-04-13 02:37:00,
2013-04-12 22:43:00,69.3,66.6,29.86,West,277,0.0,0.0,91,0.00,,,0.00,0.0,meteohub,2013-04-13 02:43:00,
2013-04-12 22:49:00,69.3,66.6,29.86,West,277,0.0,0.0,91,0.00,,,0.00,0.0,meteohub,2013-04-13 02:49:00,
2013-04-12 22:55:00,69.1,66.4,29.86,West,277,0.0,0.0,91,0.00,,,0.00,0.0,meteohub,2013-04-13 02:55:00,
2013-04-12 23:02:00,69.3,66.6,29.87,West,277,0.0,0.0,91,0.00,,,0.00,0.0,meteohub,2013-04-13 03:02:00,
2013-04-12 23:08:00,69.1,66.4,29.86,West,277,0.0,0.0,91,0.00,,,0.00,0.0,meteohub,2013-04-13 03:08:00,
2013-04-12 23:14:00,69.3,66.9,29.87,West,277,0.0,0.0,92,0.00,,,0.00,0.0,meteohub,2013-04-13 03:14:00,
2013-04-12 23:20:00,69.3,66.9,29.87,West,277,0.0,0.0,92,0.00,,,0.00,0.0,meteohub,2013-04-13 03:20:00,
2013-04-12 23:27:00,69.3,66.9,29.87,West,277,0.0,0.0,92,0.00,,,0.00,0.0,meteohub,2013-04-13 03:27:00,
2013-04-12 23:32:00,69.4,67.1,29.87,West,277,0.0,0.0,92,0.00,,,0.00,0.0,meteohub,2013-04-13 03:32:00,
2013-04-12 23:39:00,69.4,67.1,29.87,West,277,0.0,0.0,92,0.00,,,0.00,0.0,meteohub,2013-04-13 03:39:00,
2013-04-12 23:45:00,69.4,67.1,29.87,West,277,0.0,0.0,92,0.00,,,0.00,0.0,meteohub,2013-04-13 03:45:00,
2013-04-12 23:51:00,69.4,67.3,29.88,West,277,0.0,0.0,93,0.00,,,0.00,0.0,meteohub,2013-04-13 03:51:00,
2013-04-12 23:57:00,69.4,67.3,29.88,West,277,0.0,0.0,93,0.00,,,0.00,0.0,meteohub,2013-04-13 03:57:00,